createdAt,value
2023-07-31T00:01:16.443Z,2.67
2023-07-31T00:03:43.028Z,2.60
2023-07-31T00:06:09.652Z,3.28
2023-07-31T00:08:36.195Z,3.72
2023-07-31T00:11:02.768Z,3.30
2023-07-31T00:13:29.368Z,3.35
2023-07-31T00:15:56.145Z,3.28
2023-07-31T00:18:22.718Z,3.17
2023-07-31T00:20:49.454Z,3.67
2023-07-31T00:23:16.015Z,3.78
2023-07-31T00:25:43.065Z,3.42
2023-07-31T00:28:09.663Z,3.15
2023-07-31T00:30:36.224Z,2.95
2023-07-31T00:33:02.872Z,2.95
2023-07-31T00:35:29.514Z,3.58
2023-07-31T00:37:58.839Z,3.70
2023-07-31T00:40:25.480Z,3.92
2023-07-31T00:42:52.057Z,3.67
2023-07-31T00:45:18.740Z,3.65
2023-07-31T00:47:45.889Z,3.65
2023-07-31T00:50:12.527Z,3.70
2023-07-31T00:52:39.096Z,3.28
2023-07-31T00:55:06.136Z,3.90
2023-07-31T00:57:34.053Z,4.47
2023-07-31T01:00:01.186Z,3.80
2023-07-31T01:02:27.965Z,3.25
2023-07-31T01:04:54.682Z,3.63
2023-07-31T01:07:46.415Z,3.50
2023-07-31T01:10:26.640Z,4.20
2023-07-31T01:12:54.726Z,3.70
2023-07-31T01:15:22.160Z,3.60
2023-07-31T01:17:48.941Z,3.53
2023-07-31T01:20:23.997Z,3.80
2023-07-31T01:23:18.698Z,3.50
2023-07-31T01:25:54.442Z,3.13
2023-07-31T01:28:24.450Z,4.07
2023-07-31T01:30:51.220Z,3.58
2023-07-31T01:33:17.952Z,3.80
2023-07-31T01:35:49.980Z,3.22
2023-07-31T01:38:16.558Z,3.22
2023-07-31T01:40:43.741Z,3.80
2023-07-31T01:43:10.540Z,4.30
2023-07-31T01:45:37.220Z,4.03
2023-07-31T01:48:03.878Z,3.60
2023-07-31T01:50:30.524Z,3.25
2023-07-31T01:52:57.208Z,3.70
2023-07-31T01:55:23.796Z,3.50
2023-07-31T01:57:50.426Z,3.53
2023-07-31T02:00:17.091Z,3.42
2023-07-31T02:02:43.730Z,2.80
2023-07-31T02:05:10.446Z,3.08
2023-07-31T02:07:37.054Z,3.10
2023-07-31T02:10:03.823Z,3.03
2023-07-31T02:12:33.082Z,3.05
2023-07-31T02:14:59.696Z,3.42
2023-07-31T02:17:26.439Z,3.60
2023-07-31T02:19:54.070Z,3.15
2023-07-31T02:22:20.922Z,3.08
2023-07-31T02:24:47.625Z,3.35
2023-07-31T02:27:14.241Z,3.13
2023-07-31T02:29:40.813Z,3.00
2023-07-31T02:32:07.636Z,3.47
2023-07-31T02:34:34.261Z,3.25
2023-07-31T02:37:01.845Z,3.55
2023-07-31T02:39:28.471Z,3.28
2023-07-31T02:41:55.058Z,3.17
2023-07-31T02:44:22.208Z,3.08
2023-07-31T02:46:48.783Z,2.95
2023-07-31T02:49:15.300Z,3.03
2023-07-31T02:51:41.879Z,3.00
2023-07-31T02:54:08.490Z,2.60
2023-07-31T02:56:35.110Z,3.22
2023-07-31T02:59:01.650Z,2.83
2023-07-31T03:01:28.230Z,2.40
2023-07-31T03:03:54.814Z,3.25
2023-07-31T03:06:21.546Z,2.67
2023-07-31T03:08:48.093Z,2.25
2023-07-31T03:11:14.726Z,2.65
2023-07-31T03:13:41.344Z,2.85
2023-07-31T03:16:07.938Z,2.88
2023-07-31T03:18:34.623Z,2.55
2023-07-31T03:21:01.164Z,2.97
2023-07-31T03:23:27.732Z,3.17
2023-07-31T03:26:01.879Z,2.60
2023-07-31T03:28:28.560Z,2.20
2023-07-31T03:30:55.277Z,2.22
2023-07-31T03:33:21.965Z,2.67
2023-07-31T03:35:48.563Z,3.10
2023-07-31T03:38:15.157Z,3.00
2023-07-31T03:40:41.792Z,2.72
2023-07-31T03:43:08.407Z,2.47
2023-07-31T03:45:34.977Z,2.80
2023-07-31T03:48:01.612Z,3.28
2023-07-31T03:50:28.220Z,2.60
2023-07-31T03:52:54.803Z,2.85
2023-07-31T03:55:22.806Z,3.40
2023-07-31T03:57:49.430Z,2.47
2023-07-31T04:00:16.179Z,2.97
2023-07-31T04:02:42.792Z,2.45
2023-07-31T04:05:09.424Z,2.17
2023-07-31T04:07:36.129Z,3.20
2023-07-31T04:10:02.819Z,2.85
2023-07-31T04:12:29.383Z,2.90
2023-07-31T04:14:55.989Z,2.88
2023-07-31T04:17:22.736Z,2.50
2023-07-31T04:19:49.418Z,2.63
2023-07-31T04:22:15.951Z,4.43
2023-07-31T04:24:42.540Z,3.03
2023-07-31T04:27:09.114Z,3.72
2023-07-31T04:29:35.757Z,3.50
2023-07-31T04:32:02.346Z,3.63
2023-07-31T04:34:28.939Z,3.60
2023-07-31T04:36:55.518Z,3.20
2023-07-31T04:39:22.101Z,4.10
2023-07-31T04:41:48.632Z,4.10
2023-07-31T04:44:15.441Z,4.07
2023-07-31T04:46:42.402Z,3.55
2023-07-31T04:49:09.255Z,3.97
2023-07-31T04:51:35.876Z,3.95
2023-07-31T04:54:02.500Z,3.83
2023-07-31T04:56:29.124Z,4.70
2023-07-31T04:58:56.083Z,3.67
2023-07-31T05:01:22.741Z,3.90
2023-07-31T05:03:49.520Z,3.97
2023-07-31T05:06:16.507Z,3.60
2023-07-31T05:08:43.138Z,3.90
2023-07-31T05:11:09.735Z,3.50
2023-07-31T05:13:36.324Z,4.22
2023-07-31T05:16:03.680Z,4.03
2023-07-31T05:18:30.470Z,4.15
2023-07-31T05:20:57.064Z,3.80
2023-07-31T05:23:23.635Z,4.50
2023-07-31T05:25:50.219Z,4.50
2023-07-31T05:28:16.812Z,4.03
2023-07-31T05:30:43.822Z,4.63
2023-07-31T05:33:12.241Z,4.22
2023-07-31T05:35:40.460Z,4.78
2023-07-31T05:38:07.670Z,4.90
2023-07-31T05:40:34.684Z,4.70
2023-07-31T05:43:01.283Z,4.68
2023-07-31T05:45:28.060Z,4.85
2023-07-31T05:47:55.092Z,5.18
2023-07-31T05:50:21.893Z,4.82
2023-07-31T05:52:48.657Z,4.65
2023-07-31T05:55:15.369Z,5.07
2023-07-31T05:57:41.963Z,4.90
2023-07-31T06:00:09.170Z,4.65
2023-07-31T06:02:38.086Z,4.35
2023-07-31T06:05:07.293Z,4.57
2023-07-31T06:07:34.013Z,4.10
2023-07-31T06:10:06.163Z,3.97
2023-07-31T06:12:34.327Z,3.75
2023-07-31T06:15:01.156Z,3.88
2023-07-31T06:17:27.921Z,3.35
2023-07-31T06:19:55.037Z,3.22
2023-07-31T06:22:21.667Z,3.30
2023-07-31T06:24:48.434Z,3.13
2023-07-31T06:27:15.285Z,3.28
2023-07-31T06:29:42.394Z,3.72
2023-07-31T06:32:09.317Z,2.90
2023-07-31T06:34:36.095Z,2.88
2023-07-31T06:37:02.742Z,3.22
2023-07-31T06:39:29.369Z,3.17
2023-07-31T06:41:56.021Z,2.40
2023-07-31T06:44:22.935Z,2.70
2023-07-31T06:46:49.672Z,3.08
2023-07-31T06:49:17.363Z,2.67
2023-07-31T06:51:45.320Z,2.90
2023-07-31T06:54:12.422Z,2.90
2023-07-31T06:56:41.082Z,3.08
2023-07-31T06:59:08.289Z,2.70
2023-07-31T07:01:34.895Z,3.33
2023-07-31T07:04:01.620Z,3.00
2023-07-31T07:06:28.270Z,2.83
2023-07-31T07:08:54.852Z,3.22
2023-07-31T07:11:21.428Z,2.60
2023-07-31T07:13:48.004Z,2.33
2023-07-31T07:16:14.864Z,2.83
2023-07-31T07:18:46.757Z,2.65
2023-07-31T07:21:19.179Z,3.25
2023-07-31T07:23:45.849Z,2.30
2023-07-31T07:26:13.766Z,2.47
2023-07-31T07:28:40.464Z,3.38
2023-07-31T07:31:07.167Z,2.30
2023-07-31T07:33:33.837Z,2.60
2023-07-31T07:36:03.795Z,3.30
2023-07-31T07:38:30.320Z,3.35
2023-07-31T07:40:56.939Z,2.80
2023-07-31T07:43:23.487Z,2.42
2023-07-31T07:45:50.941Z,2.80
2023-07-31T07:48:18.557Z,2.55
2023-07-31T07:50:45.302Z,2.08
2023-07-31T07:53:11.974Z,2.40
2023-07-31T07:55:38.637Z,2.70
2023-07-31T07:58:06.371Z,2.85
2023-07-31T08:00:33.027Z,2.60
2023-07-31T08:02:59.922Z,2.40
2023-07-31T08:05:26.621Z,2.53
2023-07-31T08:07:53.205Z,2.90
2023-07-31T08:10:19.815Z,3.33
2023-07-31T08:12:46.323Z,2.70
2023-07-31T08:15:12.990Z,3.17
2023-07-31T08:17:39.629Z,3.22
2023-07-31T08:20:09.524Z,2.88
2023-07-31T08:22:36.111Z,2.15
2023-07-31T08:25:02.749Z,2.63
2023-07-31T08:27:30.562Z,2.35
2023-07-31T08:29:57.171Z,2.53
2023-07-31T08:32:23.959Z,3.00
2023-07-31T08:34:50.824Z,2.53
2023-07-31T08:37:17.529Z,2.55
2023-07-31T08:39:44.207Z,3.00
2023-07-31T08:42:10.790Z,2.78
2023-07-31T08:44:37.820Z,2.47
2023-07-31T08:47:04.857Z,2.45
2023-07-31T08:49:32.027Z,2.15
2023-07-31T08:51:59.338Z,2.10
2023-07-31T08:54:26.022Z,1.83
2023-07-31T08:56:54.265Z,2.33
2023-07-31T08:59:22.467Z,2.40
2023-07-31T09:01:51.692Z,2.33
2023-07-31T09:04:21.111Z,1.88
2023-07-31T09:06:49.554Z,1.80
2023-07-31T09:09:17.315Z,2.17
2023-07-31T09:11:44.002Z,1.50
2023-07-31T09:14:11.672Z,1.50
2023-07-31T09:16:53.970Z,1.88
2023-07-31T09:19:28.341Z,1.70
2023-07-31T09:21:55.459Z,1.40
2023-07-31T09:24:29.668Z,1.30
2023-07-31T09:27:00.644Z,1.30
2023-07-31T09:29:28.814Z,1.10
2023-07-31T09:31:56.329Z,0.90
2023-07-31T09:34:30.775Z,0.93
2023-07-31T09:37:02.181Z,1.42
2023-07-31T09:39:28.983Z,1.23
2023-07-31T09:41:56.908Z,1.40
2023-07-31T09:44:38.887Z,1.55
2023-07-31T09:47:05.884Z,1.42
2023-07-31T09:49:32.950Z,1.60
2023-07-31T09:51:59.655Z,1.30
2023-07-31T09:54:26.322Z,1.38
2023-07-31T09:56:53.476Z,1.40
2023-07-31T09:59:24.237Z,0.85
2023-07-31T10:01:51.965Z,1.30
2023-07-31T10:04:21.957Z,0.88
2023-07-31T10:06:50.788Z,1.08
2023-07-31T10:09:20.196Z,1.35
2023-07-31T10:11:57.218Z,1.73
2023-07-31T10:14:25.318Z,1.20
2023-07-31T10:16:52.296Z,1.10
2023-07-31T10:19:20.373Z,1.27
2023-07-31T10:21:48.206Z,1.45
2023-07-31T10:24:16.104Z,0.85
2023-07-31T10:26:47.073Z,0.70
2023-07-31T10:29:14.087Z,0.80
2023-07-31T10:31:41.157Z,0.57
2023-07-31T10:34:07.856Z,0.82
2023-07-31T10:36:34.831Z,0.70
2023-07-31T10:39:05.273Z,0.70
2023-07-31T10:41:32.465Z,0.75
2023-07-31T10:44:00.756Z,0.60
2023-07-31T10:46:29.724Z,0.60
2023-07-31T10:49:01.651Z,0.70
2023-07-31T10:51:38.789Z,0.68
2023-07-31T10:54:16.234Z,0.60
2023-07-31T10:56:47.563Z,0.50
2023-07-31T10:59:15.126Z,0.63
2023-07-31T11:01:55.580Z,0.80
2023-07-31T11:04:28.662Z,0.80
2023-07-31T11:07:03.773Z,1.05
2023-07-31T11:09:33.410Z,0.90
2023-07-31T11:12:00.850Z,1.30
2023-07-31T11:14:27.632Z,1.13
2023-07-31T11:16:54.370Z,1.50
2023-07-31T11:19:25.177Z,1.10
2023-07-31T11:21:54.848Z,1.65
2023-07-31T11:24:21.996Z,1.25
2023-07-31T11:26:54.784Z,1.50
2023-07-31T11:29:21.734Z,1.50
2023-07-31T11:31:49.931Z,1.42
2023-07-31T11:34:16.472Z,2.03
2023-07-31T11:36:54.060Z,1.60
2023-07-31T11:39:20.618Z,2.00
2023-07-31T11:41:47.222Z,1.10
2023-07-31T11:44:27.110Z,1.40
2023-07-31T11:46:57.894Z,1.70
2023-07-31T11:49:24.622Z,1.38
2023-07-31T11:51:51.374Z,1.77
2023-07-31T11:54:18.084Z,1.63
2023-07-31T11:56:44.919Z,1.73
2023-07-31T11:59:13.282Z,1.60
2023-07-31T12:01:40.097Z,1.17
2023-07-31T12:04:06.834Z,1.10
2023-07-31T12:06:35.480Z,1.10
2023-07-31T12:09:06.354Z,1.35
2023-07-31T12:11:44.052Z,1.00
2023-07-31T12:14:32.189Z,1.10
2023-07-31T12:17:05.641Z,1.17
2023-07-31T12:19:32.797Z,1.20
2023-07-31T12:22:00.549Z,1.20
2023-07-31T12:24:30.269Z,1.20
2023-07-31T12:26:56.860Z,1.05
2023-07-31T12:29:23.520Z,1.40
2023-07-31T12:31:50.169Z,1.45
2023-07-31T12:34:19.121Z,1.45
2023-07-31T12:36:45.831Z,2.45
2023-07-31T12:39:13.926Z,2.28
2023-07-31T12:41:40.512Z,2.50
2023-07-31T12:44:07.096Z,2.85
2023-07-31T12:46:34.193Z,2.25
2023-07-31T12:49:00.904Z,2.90
2023-07-31T12:51:27.475Z,2.83
2023-07-31T12:53:54.090Z,2.60
2023-07-31T12:56:20.776Z,2.60
2023-07-31T12:58:47.317Z,2.10
2023-07-31T13:01:13.993Z,2.17
2023-07-31T13:03:40.629Z,1.90
2023-07-31T13:06:07.340Z,2.92
2023-07-31T13:08:33.880Z,3.30
2023-07-31T13:11:00.461Z,2.78
2023-07-31T13:13:27.021Z,2.53
2023-07-31T13:15:53.713Z,2.90
2023-07-31T13:18:20.311Z,2.30
2023-07-31T13:20:46.972Z,1.83
2023-07-31T13:23:13.558Z,2.20
2023-07-31T13:25:40.225Z,1.50
2023-07-31T13:28:06.793Z,1.02
2023-07-31T13:30:34.468Z,1.52
2023-07-31T13:33:01.076Z,1.40
2023-07-31T13:35:27.749Z,1.30
2023-07-31T13:37:54.346Z,1.55
2023-07-31T13:40:20.950Z,1.20
2023-07-31T13:42:48.873Z,1.15
2023-07-31T13:45:15.649Z,1.10
2023-07-31T13:47:42.345Z,1.00
2023-07-31T13:50:09.329Z,0.80
2023-07-31T13:52:35.896Z,0.90
2023-07-31T13:55:02.444Z,0.80
2023-07-31T13:57:29.568Z,0.93
2023-07-31T13:59:56.136Z,0.85
2023-07-31T14:02:22.790Z,0.90
2023-07-31T14:04:49.463Z,1.27
2023-07-31T14:07:16.066Z,0.98
2023-07-31T14:09:42.663Z,1.55
2023-07-31T14:12:09.328Z,2.28
2023-07-31T14:14:35.979Z,2.47
2023-07-31T14:17:02.974Z,2.65
2023-07-31T14:19:30.030Z,2.72
2023-07-31T14:22:10.303Z,2.65
2023-07-31T14:24:37.866Z,2.70
2023-07-31T14:27:04.664Z,2.20
2023-07-31T14:29:31.346Z,3.17
2023-07-31T14:31:57.989Z,2.45
2023-07-31T14:34:24.593Z,2.40
2023-07-31T14:36:51.150Z,2.47
2023-07-31T14:39:17.944Z,2.00
2023-07-31T14:41:44.508Z,1.70
2023-07-31T14:44:11.101Z,2.20
2023-07-31T14:46:37.952Z,2.03
2023-07-31T14:49:04.887Z,2.53
2023-07-31T14:51:31.453Z,1.80
2023-07-31T14:53:58.015Z,1.90
2023-07-31T14:56:24.605Z,2.20
2023-07-31T14:58:51.204Z,1.80
2023-07-31T15:01:17.814Z,1.65
2023-07-31T15:03:44.513Z,2.00
2023-07-31T15:06:13.074Z,1.73
2023-07-31T15:08:39.928Z,1.98
2023-07-31T15:11:06.525Z,1.42
2023-07-31T15:13:33.177Z,2.03
2023-07-31T15:16:00.012Z,1.88
2023-07-31T15:18:26.978Z,2.22
2023-07-31T15:20:54.574Z,1.90
2023-07-31T15:23:21.148Z,2.45
2023-07-31T15:25:47.708Z,2.20
2023-07-31T15:28:14.332Z,2.10
2023-07-31T15:30:41.004Z,2.35
2023-07-31T15:33:07.617Z,2.15
2023-07-31T15:35:34.288Z,2.38
2023-07-31T15:38:00.809Z,1.63
2023-07-31T15:40:27.391Z,2.20
2023-07-31T15:42:53.968Z,1.50
2023-07-31T15:45:20.597Z,1.90
2023-07-31T15:47:47.260Z,1.92
2023-07-31T15:50:13.858Z,1.80
2023-07-31T15:52:40.459Z,1.85
2023-07-31T15:55:07.545Z,1.60
2023-07-31T15:57:34.376Z,1.33
2023-07-31T16:00:01.111Z,1.80
2023-07-31T16:02:27.719Z,1.95
2023-07-31T16:04:54.537Z,1.40
2023-07-31T16:07:22.480Z,1.83
2023-07-31T16:09:50.429Z,1.85
2023-07-31T16:12:17.094Z,1.77
2023-07-31T16:14:43.991Z,1.45
2023-07-31T16:17:10.767Z,1.85
2023-07-31T16:19:38.504Z,1.80
2023-07-31T16:22:05.591Z,1.77
2023-07-31T16:24:32.512Z,1.80
2023-07-31T16:26:59.160Z,1.60
2023-07-31T16:29:25.728Z,1.42
2023-07-31T16:31:58.035Z,1.55
2023-07-31T16:34:27.533Z,1.30
2023-07-31T16:36:57.247Z,2.00
2023-07-31T16:39:24.076Z,1.90
2023-07-31T16:41:51.047Z,1.48
2023-07-31T16:44:17.830Z,1.27
2023-07-31T16:46:44.549Z,1.23
2023-07-31T16:49:11.250Z,1.25
2023-07-31T16:51:38.256Z,1.88
2023-07-31T16:54:05.127Z,1.73
2023-07-31T16:56:38.991Z,1.25
2023-07-31T16:59:17.989Z,1.55
2023-07-31T17:01:44.992Z,1.65
2023-07-31T17:04:12.062Z,1.38
2023-07-31T17:06:38.814Z,1.77
2023-07-31T17:09:05.380Z,1.60
2023-07-31T17:11:31.978Z,1.83
2023-07-31T17:13:58.577Z,1.73
2023-07-31T17:16:25.433Z,1.67
2023-07-31T17:18:51.974Z,2.13
2023-07-31T17:21:18.493Z,1.65
2023-07-31T17:23:45.054Z,2.05
2023-07-31T17:26:13.419Z,1.83
2023-07-31T17:28:43.015Z,2.40
2023-07-31T17:31:09.603Z,1.70
2023-07-31T17:33:36.662Z,1.90
2023-07-31T17:36:03.480Z,2.55
2023-07-31T17:38:30.054Z,2.63
2023-07-31T17:40:56.657Z,2.10
2023-07-31T17:43:23.636Z,2.25
2023-07-31T17:45:50.202Z,1.98
2023-07-31T17:48:16.783Z,1.98
2023-07-31T17:50:43.451Z,1.85
2023-07-31T17:53:10.021Z,1.80
2023-07-31T17:55:36.622Z,1.83
2023-07-31T17:58:03.147Z,2.00
2023-07-31T18:00:30.554Z,2.90
2023-07-31T18:02:57.275Z,1.20
2023-07-31T18:05:23.915Z,1.55
2023-07-31T18:07:50.637Z,0.90
2023-07-31T18:10:17.307Z,1.20
2023-07-31T18:12:43.971Z,0.98
2023-07-31T18:15:11.127Z,1.50
2023-07-31T18:17:37.714Z,1.30
2023-07-31T18:20:06.871Z,0.98
2023-07-31T18:22:33.390Z,1.35
2023-07-31T18:24:59.958Z,0.75
2023-07-31T18:27:26.580Z,0.90
2023-07-31T18:29:53.120Z,0.90
2023-07-31T18:32:19.867Z,1.00
2023-07-31T18:34:46.448Z,1.40
2023-07-31T18:37:12.978Z,1.13
2023-07-31T18:39:39.558Z,1.00
2023-07-31T18:42:06.669Z,0.80
2023-07-31T18:44:33.273Z,1.10
2023-07-31T18:47:00.213Z,1.30
2023-07-31T18:49:26.799Z,0.90
2023-07-31T18:51:53.438Z,1.10
2023-07-31T18:54:20.090Z,1.00
2023-07-31T18:56:46.758Z,0.82
2023-07-31T18:59:13.426Z,0.85
2023-07-31T19:01:42.028Z,0.80
2023-07-31T19:04:08.750Z,0.90
2023-07-31T19:06:36.527Z,0.68
2023-07-31T19:09:05.232Z,1.00
2023-07-31T19:11:33.390Z,0.60
2023-07-31T19:14:01.009Z,0.47
2023-07-31T19:16:27.905Z,0.50
2023-07-31T19:18:54.528Z,0.50
2023-07-31T19:21:21.191Z,0.50
2023-07-31T19:23:48.020Z,0.40
2023-07-31T19:26:15.009Z,0.40
2023-07-31T19:28:41.675Z,0.40
2023-07-31T19:31:08.396Z,0.20
2023-07-31T19:33:35.007Z,0.40
2023-07-31T19:36:01.616Z,0.32
2023-07-31T19:38:28.536Z,0.50
2023-07-31T19:40:55.367Z,0.57
2023-07-31T19:43:22.084Z,0.22
2023-07-31T19:45:48.917Z,0.40
2023-07-31T19:48:16.732Z,0.20
2023-07-31T19:50:43.353Z,0.35
2023-07-31T19:53:10.004Z,0.47
2023-07-31T19:55:36.699Z,0.20
2023-07-31T19:58:03.445Z,0.30
2023-07-31T20:00:30.286Z,0.17
2023-07-31T20:02:57.078Z,0.30
2023-07-31T20:05:23.755Z,0.20
2023-07-31T20:07:50.424Z,0.20
2023-07-31T20:10:16.993Z,0.20
2023-07-31T20:12:43.626Z,0.20
2023-07-31T20:15:20.318Z,0.20
2023-07-31T20:17:47.219Z,0.30
2023-07-31T20:20:14.076Z,0.35
2023-07-31T20:22:43.100Z,0.50
2023-07-31T20:25:10.205Z,0.25
2023-07-31T20:27:36.947Z,0.50
2023-07-31T20:30:03.904Z,0.45
2023-07-31T20:32:30.661Z,0.63
2023-07-31T20:34:57.400Z,0.60
2023-07-31T20:37:24.058Z,0.50
2023-07-31T20:39:50.776Z,0.60
2023-07-31T20:42:21.142Z,0.38
2023-07-31T20:44:48.313Z,0.83
2023-07-31T20:47:14.900Z,0.50
2023-07-31T20:49:41.867Z,0.70
2023-07-31T20:52:08.500Z,0.70
2023-07-31T20:54:35.270Z,0.70
2023-07-31T20:57:01.876Z,0.68
2023-07-31T20:59:28.536Z,0.60
2023-07-31T21:01:55.282Z,0.47
2023-07-31T21:04:21.993Z,0.90
2023-07-31T21:06:48.618Z,0.75
2023-07-31T21:09:15.251Z,0.70
2023-07-31T21:11:41.882Z,0.88
2023-07-31T21:14:08.633Z,0.60
2023-07-31T21:16:35.251Z,0.52
2023-07-31T21:19:02.054Z,0.60
2023-07-31T21:21:28.680Z,0.60
2023-07-31T21:23:55.348Z,0.80
2023-07-31T21:26:22.032Z,0.70
2023-07-31T21:28:49.155Z,0.70
2023-07-31T21:31:16.468Z,0.60
2023-07-31T21:33:44.054Z,0.55
2023-07-31T21:36:10.633Z,0.50
2023-07-31T21:38:37.257Z,0.68
2023-07-31T21:41:05.396Z,0.68
2023-07-31T21:43:32.072Z,0.52
2023-07-31T21:45:58.908Z,0.40
2023-07-31T21:48:25.594Z,0.60
2023-07-31T21:50:52.259Z,0.40
2023-07-31T21:53:19.287Z,0.60
2023-07-31T21:55:46.109Z,0.50
2023-07-31T21:58:12.661Z,0.70
2023-07-31T22:00:39.343Z,1.08
2023-07-31T22:03:05.996Z,0.45
2023-07-31T22:05:32.613Z,0.40
2023-07-31T22:07:59.437Z,0.60
2023-07-31T22:10:26.042Z,0.50
2023-07-31T22:12:52.622Z,0.38
2023-07-31T22:15:19.218Z,0.63
2023-07-31T22:17:46.260Z,0.57
2023-07-31T22:20:12.964Z,0.57
2023-07-31T22:22:39.526Z,0.50
2023-07-31T22:25:06.532Z,0.30
2023-07-31T22:27:33.056Z,0.50
2023-07-31T22:29:59.668Z,0.38
2023-07-31T22:32:26.248Z,0.30
2023-07-31T22:34:52.973Z,0.20
2023-07-31T22:37:19.530Z,0.30
2023-07-31T22:39:46.089Z,0.20
2023-07-31T22:42:12.657Z,0.30
2023-07-31T22:44:39.356Z,0.40
2023-07-31T22:47:06.152Z,0.20
2023-07-31T22:49:32.806Z,0.45
2023-07-31T22:51:59.388Z,0.32
2023-07-31T22:54:25.980Z,0.28
2023-07-31T22:56:52.607Z,0.28
2023-07-31T22:59:19.160Z,0.30
2023-07-31T23:01:45.776Z,0.30
2023-07-31T23:04:12.464Z,0.20
2023-07-31T23:06:39.337Z,0.20
2023-07-31T23:09:06.072Z,0.30
2023-07-31T23:11:32.685Z,0.20
2023-07-31T23:13:59.229Z,0.30
2023-07-31T23:16:25.877Z,0.50
2023-07-31T23:18:52.492Z,0.35
2023-07-31T23:21:19.059Z,0.40
2023-07-31T23:23:45.626Z,0.50
2023-07-31T23:26:12.263Z,0.30
2023-07-31T23:28:38.900Z,0.40
2023-07-31T23:31:05.746Z,0.40
2023-07-31T23:33:32.748Z,0.43
2023-07-31T23:36:08.404Z,0.35
2023-07-31T23:38:34.982Z,0.30
2023-07-31T23:41:01.543Z,0.50
2023-07-31T23:43:28.148Z,0.50
2023-07-31T23:45:54.742Z,0.47
2023-07-31T23:48:21.375Z,0.55
2023-07-31T23:50:48.025Z,0.50
2023-07-31T23:53:14.736Z,0.63
2023-07-31T23:55:41.347Z,0.52
2023-07-31T23:58:08.258Z,0.60
